createdAt,value
2022-12-11T00:01:32.713Z,159.73
2022-12-11T00:03:36.190Z,124.70
2022-12-11T00:05:40.712Z,124.03
2022-12-11T00:07:44.137Z,138.27
2022-12-11T00:09:47.554Z,131.30
2022-12-11T00:11:51.009Z,139.70
2022-12-11T00:13:54.378Z,122.60
2022-12-11T00:15:59.603Z,136.30
2022-12-11T00:18:04.428Z,174.23
2022-12-11T00:20:09.084Z,154.05
2022-12-11T00:22:12.605Z,148.48
2022-12-11T00:24:15.922Z,142.10
2022-12-11T00:26:19.672Z,151.38
2022-12-11T00:28:23.378Z,158.10
2022-12-11T00:30:26.708Z,144.18
2022-12-11T00:32:36.231Z,153.77
2022-12-11T00:34:42.418Z,162.07
2022-12-11T00:36:45.747Z,166.15
2022-12-11T00:38:50.106Z,162.93
2022-12-11T00:40:53.511Z,169.63
2022-12-11T00:42:56.816Z,161.73
2022-12-11T00:45:00.078Z,148.68
2022-12-11T00:47:03.496Z,153.70
2022-12-11T00:49:06.831Z,163.65
2022-12-11T00:51:11.677Z,169.55
2022-12-11T00:53:15.721Z,161.65
2022-12-11T00:55:19.349Z,169.80
2022-12-11T00:57:22.627Z,158.20
2022-12-11T00:59:26.003Z,160.02
2022-12-11T01:01:29.419Z,161.57
2022-12-11T01:03:32.734Z,169.95
2022-12-11T01:05:36.384Z,161.52
2022-12-11T01:07:41.138Z,160.38
2022-12-11T01:10:13.606Z,158.10
2022-12-11T01:12:17.088Z,161.38
2022-12-11T01:14:20.490Z,171.30
2022-12-11T01:16:23.862Z,180.27
2022-12-11T01:18:28.643Z,157.95
2022-12-11T01:20:32.087Z,163.93
2022-12-11T01:22:35.374Z,171.48
2022-12-11T01:24:40.013Z,178.63
2022-12-11T01:26:43.332Z,159.13
2022-12-11T01:28:49.804Z,165.20
2022-12-11T01:30:53.097Z,167.23
2022-12-11T01:32:56.477Z,157.13
2022-12-11T01:34:59.791Z,165.30
2022-12-11T01:37:03.109Z,147.32
2022-12-11T01:39:06.571Z,136.55
2022-12-11T01:41:11.792Z,170.65
2022-12-11T01:43:15.186Z,131.63
2022-12-11T01:45:36.433Z,156.45
2022-12-11T01:47:40.393Z,149.55
2022-12-11T01:49:44.516Z,164.52
2022-12-11T01:51:54.254Z,147.43
2022-12-11T01:54:02.069Z,171.60
2022-12-11T01:56:07.884Z,125.05
2022-12-11T01:58:13.811Z,181.18
2022-12-11T02:00:17.971Z,169.70
2022-12-11T02:02:25.501Z,152.13
2022-12-11T02:04:30.007Z,159.45
2022-12-11T02:06:37.067Z,138.18
2022-12-11T02:08:40.354Z,145.85
2022-12-11T02:10:54.133Z,148.73
2022-12-11T02:13:02.564Z,156.27
2022-12-11T02:15:13.490Z,116.40
2022-12-11T02:17:22.850Z,129.02
2022-12-11T02:19:45.329Z,152.35
2022-12-11T02:21:52.742Z,144.30
2022-12-11T02:24:17.105Z,168.63
2022-12-11T02:26:33.994Z,153.70
2022-12-11T02:28:43.843Z,150.43
2022-12-11T02:30:51.943Z,133.70
2022-12-11T02:32:57.874Z,148.65
2022-12-11T02:35:09.462Z,135.63
2022-12-11T02:37:19.881Z,140.52
2022-12-11T02:39:26.469Z,124.95
2022-12-11T02:41:31.120Z,119.60
2022-12-11T02:43:36.241Z,146.90
2022-12-11T02:45:42.882Z,155.75
2022-12-11T02:47:48.997Z,157.00
2022-12-11T02:49:54.125Z,175.70
2022-12-11T02:51:59.030Z,168.18
2022-12-11T02:54:04.167Z,157.45
2022-12-11T02:56:12.270Z,159.65
2022-12-11T02:58:19.235Z,173.27
2022-12-11T03:00:22.628Z,186.98
2022-12-11T03:02:27.469Z,161.48
2022-12-11T03:04:31.309Z,159.23
2022-12-11T03:06:38.798Z,149.32
2022-12-11T03:08:42.170Z,160.82
2022-12-11T03:10:45.723Z,171.13
2022-12-11T03:12:53.748Z,149.02
2022-12-11T03:15:00.314Z,145.30
2022-12-11T03:17:16.107Z,143.93
2022-12-11T03:19:29.140Z,144.25
2022-12-11T03:21:38.364Z,161.52
2022-12-11T03:23:50.030Z,142.43
2022-12-11T03:25:56.368Z,155.43
2022-12-11T03:28:08.434Z,148.73
2022-12-11T03:30:16.225Z,153.38
2022-12-11T03:32:23.122Z,144.07
2022-12-11T03:34:32.341Z,138.98
2022-12-11T03:36:38.451Z,141.63
2022-12-11T03:38:48.376Z,145.45
2022-12-11T03:40:57.125Z,155.98
2022-12-11T03:43:01.623Z,155.43
2022-12-11T03:45:08.559Z,141.65
2022-12-11T03:47:16.140Z,142.70
2022-12-11T03:49:23.856Z,155.38
2022-12-11T03:51:30.999Z,126.43
2022-12-11T03:53:36.297Z,145.95
2022-12-11T03:55:41.804Z,162.57
2022-12-11T03:57:45.515Z,141.02
2022-12-11T03:59:49.607Z,115.05
2022-12-11T04:01:53.353Z,132.68
2022-12-11T04:03:57.042Z,141.32
2022-12-11T04:06:00.415Z,122.78
2022-12-11T04:08:05.422Z,136.90
2022-12-11T04:10:09.116Z,125.35
2022-12-11T04:12:12.435Z,127.20
2022-12-11T04:14:33.790Z,123.68
2022-12-11T04:16:37.103Z,117.63
2022-12-11T04:18:58.046Z,107.20
2022-12-11T04:21:19.082Z,112.95
2022-12-11T04:23:41.180Z,106.10
2022-12-11T04:25:44.483Z,105.05
2022-12-11T04:27:50.428Z,100.93
2022-12-11T04:29:53.710Z,105.90
2022-12-11T04:31:57.093Z,106.93
2022-12-11T04:34:00.438Z,105.43
2022-12-11T04:36:03.779Z,111.68
2022-12-11T04:38:07.153Z,107.35
2022-12-11T04:40:16.391Z,118.03
2022-12-11T04:42:19.736Z,111.22
2022-12-11T04:44:23.221Z,107.97
2022-12-11T04:46:26.887Z,127.93
2022-12-11T04:48:30.849Z,119.60
2022-12-11T04:50:34.177Z,114.50
2022-12-11T04:52:37.535Z,112.75
2022-12-11T04:54:41.007Z,124.35
2022-12-11T04:56:45.641Z,117.47
2022-12-11T04:58:50.539Z,139.68
2022-12-11T05:00:54.298Z,147.00
2022-12-11T05:02:57.664Z,163.55
2022-12-11T05:05:00.989Z,141.30
2022-12-11T05:07:04.381Z,142.30
2022-12-11T05:09:08.763Z,141.98
2022-12-11T05:11:14.676Z,157.68
2022-12-11T05:13:19.349Z,152.38
2022-12-11T05:15:22.628Z,149.90
2022-12-11T05:17:25.990Z,145.50
2022-12-11T05:19:29.374Z,144.45
2022-12-11T05:21:35.198Z,159.00
2022-12-11T05:23:39.131Z,153.40
2022-12-11T05:25:42.408Z,153.20
2022-12-11T05:27:45.785Z,153.77
2022-12-11T05:29:54.808Z,157.98
2022-12-11T05:32:01.240Z,152.95
2022-12-11T05:34:04.529Z,154.73
2022-12-11T05:36:09.037Z,172.07
2022-12-11T05:38:12.610Z,144.95
2022-12-11T05:40:15.947Z,142.02
2022-12-11T05:42:22.785Z,167.48
2022-12-11T05:44:28.752Z,115.45
2022-12-11T05:46:33.492Z,133.60
2022-12-11T05:48:38.700Z,129.77
2022-12-11T05:50:42.120Z,119.80
2022-12-11T05:52:45.406Z,121.72
2022-12-11T05:54:50.320Z,117.03
2022-12-11T05:56:53.592Z,141.35
2022-12-11T05:58:57.403Z,158.90
2022-12-11T06:01:01.667Z,147.48
2022-12-11T06:03:06.545Z,141.52
2022-12-11T06:05:10.526Z,144.25
2022-12-11T06:07:14.251Z,145.75
2022-12-11T06:09:17.828Z,147.48
2022-12-11T06:11:24.126Z,156.00
2022-12-11T06:13:28.030Z,147.05
2022-12-11T06:15:31.401Z,155.93
2022-12-11T06:17:34.891Z,166.00
2022-12-11T06:19:40.948Z,147.80
2022-12-11T06:21:44.389Z,158.65
2022-12-11T06:23:49.334Z,140.82
2022-12-11T06:25:52.693Z,140.63
2022-12-11T06:27:56.179Z,160.07
2022-12-11T06:29:59.472Z,164.98
2022-12-11T06:32:03.363Z,145.23
2022-12-11T06:34:06.728Z,138.15
2022-12-11T06:36:12.866Z,153.23
2022-12-11T06:38:16.160Z,147.23
2022-12-11T06:40:19.537Z,152.43
2022-12-11T06:42:22.858Z,139.07
2022-12-11T06:44:26.273Z,146.45
2022-12-11T06:46:29.693Z,160.98
2022-12-11T06:48:33.641Z,157.95
2022-12-11T06:50:39.052Z,143.10
2022-12-11T06:52:43.667Z,155.52
2022-12-11T06:54:47.156Z,135.90
2022-12-11T06:56:50.477Z,145.88
2022-12-11T06:58:53.961Z,144.35
2022-12-11T07:00:57.389Z,141.35
2022-12-11T07:03:00.757Z,143.32
2022-12-11T07:05:04.714Z,142.85
2022-12-11T07:07:08.094Z,140.07
2022-12-11T07:09:13.100Z,141.38
2022-12-11T07:11:19.048Z,144.45
2022-12-11T07:13:22.495Z,153.63
2022-12-11T07:15:27.078Z,155.10
2022-12-11T07:17:31.181Z,156.95
2022-12-11T07:19:34.522Z,140.13
2022-12-11T07:21:38.184Z,149.05
2022-12-11T07:23:41.956Z,149.45
2022-12-11T07:25:46.680Z,134.98
2022-12-11T07:27:50.114Z,141.27
2022-12-11T07:29:54.994Z,123.95
2022-12-11T07:31:58.482Z,139.00
2022-12-11T07:34:05.051Z,140.57
2022-12-11T07:36:10.626Z,141.23
2022-12-11T07:38:13.925Z,147.57
2022-12-11T07:40:17.637Z,142.32
2022-12-11T07:42:22.324Z,145.20
2022-12-11T07:44:25.725Z,125.88
2022-12-11T07:46:30.634Z,130.77
2022-12-11T07:48:36.123Z,132.52
2022-12-11T07:50:40.046Z,136.60
2022-12-11T07:52:43.401Z,139.32
2022-12-11T07:54:46.710Z,122.72
2022-12-11T07:56:53.734Z,128.13
2022-12-11T07:59:00.540Z,151.07
2022-12-11T08:01:03.903Z,145.85
2022-12-11T08:03:07.262Z,140.52
2022-12-11T08:05:12.364Z,123.03
2022-12-11T08:07:15.874Z,149.00
2022-12-11T08:09:22.499Z,134.50
2022-12-11T08:11:26.162Z,132.40
2022-12-11T08:13:29.965Z,139.40
2022-12-11T08:15:35.134Z,136.88
2022-12-11T08:17:40.221Z,139.25
2022-12-11T08:19:43.711Z,134.15
2022-12-11T08:21:47.241Z,135.38
2022-12-11T08:23:51.523Z,133.68
2022-12-11T08:25:54.865Z,129.32
2022-12-11T08:27:58.195Z,153.07
2022-12-11T08:30:01.555Z,127.95
2022-12-11T08:32:12.057Z,129.85
2022-12-11T08:34:15.933Z,120.53
2022-12-11T08:36:21.326Z,129.00
2022-12-11T08:38:25.913Z,140.13
2022-12-11T08:40:29.365Z,157.95
2022-12-11T08:42:32.721Z,151.18
2022-12-11T08:44:36.065Z,121.65
2022-12-11T08:46:39.765Z,119.82
2022-12-11T08:48:44.869Z,134.45
2022-12-11T08:50:48.141Z,152.18
2022-12-11T08:52:51.457Z,140.82
2022-12-11T08:54:54.824Z,154.95
2022-12-11T08:56:58.490Z,152.88
2022-12-11T08:59:02.784Z,150.43
2022-12-11T09:01:10.721Z,144.68
2022-12-11T09:03:14.322Z,162.57
2022-12-11T09:05:19.105Z,154.25
2022-12-11T09:07:22.452Z,133.85
2022-12-11T09:09:25.771Z,137.13
2022-12-11T09:11:31.753Z,167.25
2022-12-11T09:13:35.150Z,144.05
2022-12-11T09:15:41.528Z,137.90
2022-12-11T09:17:44.972Z,133.48
2022-12-11T09:19:48.303Z,134.75
2022-12-11T09:21:53.073Z,142.55
2022-12-11T09:23:58.666Z,131.30
2022-12-11T09:26:04.954Z,133.35
2022-12-11T09:28:08.268Z,157.30
2022-12-11T09:30:12.273Z,154.65
2022-12-11T09:32:15.644Z,133.77
2022-12-11T09:34:19.077Z,136.40
2022-12-11T09:36:22.376Z,135.45
2022-12-11T09:38:27.136Z,132.05
2022-12-11T09:40:30.843Z,124.43
2022-12-11T09:42:49.166Z,133.52
2022-12-11T09:44:55.419Z,130.43
2022-12-11T09:46:59.600Z,135.32
2022-12-11T09:49:03.818Z,157.30
2022-12-11T09:51:17.029Z,162.88
2022-12-11T09:53:31.077Z,145.65
2022-12-11T09:55:50.986Z,164.13
2022-12-11T09:58:00.583Z,158.90
2022-12-11T10:00:13.509Z,152.40
2022-12-11T10:02:31.660Z,147.30
2022-12-11T10:04:46.847Z,156.65
2022-12-11T10:07:07.539Z,149.02
2022-12-11T10:09:20.591Z,126.20
2022-12-11T10:11:43.252Z,108.03
2022-12-11T10:13:55.819Z,115.75
2022-12-11T10:16:03.291Z,108.28
2022-12-11T10:18:12.545Z,134.02
2022-12-11T10:20:23.364Z,135.85
2022-12-11T10:22:31.382Z,126.40
2022-12-11T10:25:10.060Z,132.15
2022-12-11T10:27:16.018Z,119.72
2022-12-11T10:29:19.377Z,125.80
2022-12-11T10:31:33.047Z,106.88
2022-12-11T10:33:42.600Z,110.30
2022-12-11T10:35:49.390Z,133.77
2022-12-11T10:37:56.826Z,121.75
2022-12-11T10:40:00.143Z,111.53
2022-12-11T10:42:17.473Z,111.63
2022-12-11T10:44:23.022Z,125.22
2022-12-11T10:46:28.573Z,129.63
2022-12-11T10:48:32.119Z,114.32
2022-12-11T10:50:35.455Z,123.68
2022-12-11T10:52:44.982Z,120.25
2022-12-11T10:54:55.828Z,107.30
2022-12-11T10:57:00.311Z,114.18
2022-12-11T10:59:05.649Z,113.93
2022-12-11T11:01:11.683Z,138.70
2022-12-11T11:03:23.695Z,141.40
2022-12-11T11:05:34.224Z,138.90
2022-12-11T11:07:37.677Z,156.88
2022-12-11T11:09:41.906Z,149.88
2022-12-11T11:11:51.261Z,141.88
2022-12-11T11:14:14.535Z,143.25
2022-12-11T11:16:21.053Z,143.77
2022-12-11T11:18:27.585Z,151.25
2022-12-11T11:20:32.605Z,141.75
2022-12-11T11:22:42.960Z,144.27
2022-12-11T11:24:53.210Z,141.35
2022-12-11T11:27:12.786Z,142.10
2022-12-11T11:29:28.560Z,137.23
2022-12-11T11:31:34.546Z,143.88
2022-12-11T11:33:46.412Z,136.75
2022-12-11T11:35:53.851Z,141.55
2022-12-11T11:38:05.619Z,144.30
2022-12-11T11:40:16.146Z,123.13
2022-12-11T11:42:27.536Z,138.85
2022-12-11T11:44:38.776Z,145.10
2022-12-11T11:46:48.823Z,153.30
2022-12-11T11:49:00.227Z,147.35
2022-12-11T11:51:13.876Z,148.25
2022-12-11T11:53:23.488Z,163.50
2022-12-11T11:55:39.067Z,149.55
2022-12-11T11:57:46.760Z,146.98
2022-12-11T11:59:55.560Z,120.50
2022-12-11T12:01:59.574Z,143.15
2022-12-11T12:04:04.720Z,156.38
2022-12-11T12:06:17.227Z,153.80
2022-12-11T12:08:31.758Z,156.88
2022-12-11T12:10:45.161Z,123.63
2022-12-11T12:12:57.357Z,132.20
2022-12-11T12:15:18.267Z,137.95
2022-12-11T12:17:31.203Z,154.63
2022-12-11T12:19:46.248Z,158.75
2022-12-11T12:21:53.108Z,140.40
2022-12-11T12:24:09.582Z,120.15
2022-12-11T12:26:18.149Z,154.85
2022-12-11T12:28:33.013Z,154.63
2022-12-11T12:30:51.914Z,172.15
2022-12-11T12:33:11.801Z,157.27
2022-12-11T12:35:25.414Z,179.60
2022-12-11T12:37:45.778Z,148.32
2022-12-11T12:39:58.425Z,172.50
2022-12-11T12:42:12.357Z,154.43
2022-12-11T12:44:18.225Z,148.85
2022-12-11T12:46:34.161Z,161.52
2022-12-11T12:48:37.669Z,186.77
2022-12-11T12:50:44.683Z,153.27
2022-12-11T12:52:49.887Z,173.30
2022-12-11T12:55:16.449Z,178.52
2022-12-11T12:57:20.077Z,179.60
2022-12-11T12:59:25.079Z,151.70
2022-12-11T13:01:32.337Z,164.63
2022-12-11T13:03:38.865Z,178.35
2022-12-11T13:05:44.492Z,165.32
2022-12-11T13:07:54.259Z,178.27
2022-12-11T13:10:06.553Z,160.13
2022-12-11T13:12:15.573Z,153.00
2022-12-11T13:14:29.593Z,144.02
2022-12-11T13:16:39.025Z,161.73
2022-12-11T13:18:44.791Z,140.68
2022-12-11T13:20:51.075Z,149.38
2022-12-11T13:23:11.288Z,156.90
2022-12-11T13:25:28.547Z,170.00
2022-12-11T13:27:39.815Z,133.70
2022-12-11T13:29:43.673Z,144.32
2022-12-11T13:31:59.304Z,177.68
2022-12-11T13:34:16.126Z,160.60
2022-12-11T13:36:29.581Z,176.10
2022-12-11T13:38:33.011Z,165.93
2022-12-11T13:40:41.090Z,166.10
2022-12-11T13:42:50.426Z,157.05
2022-12-11T13:44:53.879Z,166.57
2022-12-11T13:47:01.502Z,156.48
2022-12-11T13:49:07.031Z,174.75
2022-12-11T13:51:17.828Z,154.48
2022-12-11T13:53:22.762Z,159.98
2022-12-11T13:55:28.281Z,155.10
2022-12-11T13:57:31.845Z,150.35
2022-12-11T13:59:37.011Z,157.73
2022-12-11T14:01:40.929Z,128.80
2022-12-11T14:03:53.920Z,124.63
2022-12-11T14:05:57.362Z,125.60
2022-12-11T14:08:08.289Z,122.78
2022-12-11T14:10:19.068Z,162.07
2022-12-11T14:12:22.951Z,154.40
2022-12-11T14:14:36.067Z,162.30
2022-12-11T14:16:39.471Z,151.93
2022-12-11T14:18:42.839Z,145.40
2022-12-11T14:20:54.199Z,105.80
2022-12-11T14:23:06.343Z,119.25
2022-12-11T14:25:22.056Z,119.53
2022-12-11T14:27:26.224Z,132.35
2022-12-11T14:29:32.252Z,145.43
2022-12-11T14:31:38.266Z,146.50
2022-12-11T14:33:44.928Z,137.48
2022-12-11T14:35:51.475Z,150.13
2022-12-11T14:37:55.912Z,163.07
2022-12-11T14:40:02.654Z,148.45
2022-12-11T14:42:11.742Z,150.70
2022-12-11T14:44:17.742Z,151.95
2022-12-11T14:46:27.458Z,148.27
2022-12-11T14:48:37.277Z,147.70
2022-12-11T14:50:43.893Z,154.00
2022-12-11T14:52:51.926Z,151.43
2022-12-11T14:54:59.176Z,148.05
2022-12-11T14:57:06.200Z,148.68
2022-12-11T14:59:19.263Z,141.07
2022-12-11T15:01:26.437Z,150.68
2022-12-11T15:03:34.346Z,145.15
2022-12-11T15:05:41.039Z,133.25
2022-12-11T15:07:54.676Z,153.80
2022-12-11T15:09:59.341Z,144.05
2022-12-11T15:12:12.294Z,145.73
2022-12-11T15:14:20.696Z,143.52
2022-12-11T15:16:27.704Z,150.63
2022-12-11T15:18:34.438Z,145.52
2022-12-11T15:20:38.215Z,153.10
2022-12-11T15:22:44.398Z,159.90
2022-12-11T15:24:52.529Z,144.60
2022-12-11T15:27:01.708Z,150.70
2022-12-11T15:29:07.725Z,145.30
2022-12-11T15:31:26.419Z,159.38
2022-12-11T15:33:34.280Z,158.80
2022-12-11T15:35:39.786Z,150.57
2022-12-11T15:37:53.378Z,138.85
2022-12-11T15:39:58.653Z,156.73
2022-12-11T15:42:03.450Z,149.23
2022-12-11T15:44:07.041Z,155.80
2022-12-11T15:46:10.584Z,149.05
2022-12-11T15:48:14.017Z,146.95
2022-12-11T15:50:20.811Z,154.98
2022-12-11T15:52:24.355Z,141.25
2022-12-11T15:54:28.030Z,144.52
2022-12-11T15:56:31.600Z,143.05
2022-12-11T15:58:36.709Z,145.48
2022-12-11T16:00:40.064Z,144.20
2022-12-11T16:02:43.821Z,138.32
2022-12-11T16:04:47.200Z,161.75
2022-12-11T16:06:50.722Z,153.80
2022-12-11T16:08:54.112Z,152.13
2022-12-11T16:10:57.590Z,150.68
2022-12-11T16:13:02.528Z,154.18
2022-12-11T16:15:08.340Z,157.18
2022-12-11T16:17:12.784Z,151.82
2022-12-11T16:19:16.235Z,159.98
2022-12-11T16:21:21.515Z,161.85
2022-12-11T16:23:25.267Z,132.07
2022-12-11T16:25:29.079Z,165.48
2022-12-11T16:27:32.382Z,147.02
2022-12-11T16:29:36.971Z,165.63
2022-12-11T16:31:41.695Z,136.55
2022-12-11T16:33:45.049Z,135.63
2022-12-11T16:35:48.386Z,140.57
2022-12-11T16:37:52.574Z,144.32
2022-12-11T16:39:55.974Z,126.68
2022-12-11T16:41:59.292Z,136.98
2022-12-11T16:44:03.620Z,133.10
2022-12-11T16:46:07.663Z,134.52
2022-12-11T16:48:12.498Z,130.63
2022-12-11T16:50:17.729Z,138.18
2022-12-11T16:52:22.414Z,134.95
2022-12-11T16:54:25.912Z,133.70
2022-12-11T16:56:29.208Z,144.35
2022-12-11T16:58:32.844Z,154.93
2022-12-11T17:00:36.142Z,152.10
2022-12-11T17:02:39.554Z,154.35
2022-12-11T17:04:46.144Z,137.35
2022-12-11T17:06:52.595Z,118.60
2022-12-11T17:08:56.075Z,146.13
2022-12-11T17:10:59.398Z,134.45
2022-12-11T17:13:02.728Z,143.32
2022-12-11T17:15:06.975Z,123.40
2022-12-11T17:17:10.539Z,152.85
2022-12-11T17:19:15.248Z,151.13
2022-12-11T17:21:22.222Z,146.50
2022-12-11T17:23:26.055Z,147.30
2022-12-11T17:25:29.416Z,147.20
2022-12-11T17:27:32.760Z,132.40
2022-12-11T17:29:36.258Z,145.65
2022-12-11T17:31:40.308Z,119.53
2022-12-11T17:33:44.161Z,145.57
2022-12-11T17:35:47.506Z,119.63
2022-12-11T17:37:52.520Z,122.38
2022-12-11T17:39:55.874Z,149.60
2022-12-11T17:41:59.286Z,153.00
2022-12-11T17:44:02.712Z,150.50
2022-12-11T17:46:06.804Z,148.20
2022-12-11T17:48:10.512Z,145.73
2022-12-11T17:50:14.053Z,146.35
2022-12-11T17:52:17.457Z,154.52
2022-12-11T17:54:22.512Z,173.93
2022-12-11T17:56:26.170Z,174.98
2022-12-11T17:58:29.824Z,149.07
2022-12-11T18:00:33.576Z,166.35
2022-12-11T18:02:36.963Z,152.77
2022-12-11T18:04:40.706Z,148.23
2022-12-11T18:06:44.142Z,144.80
2022-12-11T18:08:47.465Z,164.88
2022-12-11T18:10:53.208Z,148.80
2022-12-11T18:12:56.728Z,169.45
2022-12-11T18:15:01.537Z,152.57
2022-12-11T18:17:05.231Z,151.48
2022-12-11T18:19:09.276Z,149.93
2022-12-11T18:21:14.458Z,164.88
2022-12-11T18:23:18.110Z,155.80
2022-12-11T18:25:22.630Z,151.50
2022-12-11T18:27:29.252Z,151.30
2022-12-11T18:29:32.866Z,153.82
2022-12-11T18:31:41.915Z,167.27
2022-12-11T18:33:46.870Z,162.18
2022-12-11T18:35:51.748Z,172.60
2022-12-11T18:37:55.230Z,174.98
2022-12-11T18:39:58.931Z,148.85
2022-12-11T18:42:31.585Z,150.27
2022-12-11T18:44:27.624Z,141.95
2022-12-11T18:46:31.331Z,153.88
2022-12-11T18:48:35.114Z,150.40
2022-12-11T18:50:46.350Z,153.15
2022-12-11T18:52:54.064Z,169.45
2022-12-11T18:54:57.666Z,153.25
2022-12-11T18:57:01.250Z,163.77
2022-12-11T18:59:05.111Z,156.18
2022-12-11T19:01:12.621Z,146.52
2022-12-11T19:03:16.173Z,141.88
2022-12-11T19:05:20.182Z,140.52
2022-12-11T19:07:23.793Z,164.98
2022-12-11T19:09:27.415Z,166.45
2022-12-11T19:11:32.471Z,149.65
2022-12-11T19:13:36.668Z,149.77
2022-12-11T19:15:40.925Z,149.63
2022-12-11T19:17:45.867Z,149.68
2022-12-11T19:19:49.460Z,148.85
2022-12-11T19:21:52.821Z,157.27
2022-12-11T19:23:56.258Z,153.75
2022-12-11T19:25:59.582Z,138.35
2022-12-11T19:28:02.995Z,129.88
2022-12-11T19:30:07.332Z,128.35
2022-12-11T19:32:10.783Z,129.30
2022-12-11T19:34:15.604Z,132.00
2022-12-11T19:36:20.781Z,121.75
2022-12-11T19:38:24.147Z,126.40
2022-12-11T19:40:27.532Z,124.45
2022-12-11T19:42:30.853Z,124.20
2022-12-11T19:44:34.192Z,144.55
2022-12-11T19:46:37.653Z,149.68
2022-12-11T19:48:41.757Z,150.57
2022-12-11T19:50:46.672Z,152.95
2022-12-11T19:52:49.986Z,164.73
2022-12-11T19:54:53.424Z,167.60
2022-12-11T19:56:56.775Z,169.75
2022-12-11T19:59:00.772Z,168.45
2022-12-11T20:01:05.055Z,173.27
2022-12-11T20:03:08.473Z,164.45
2022-12-11T20:05:12.189Z,172.65
2022-12-11T20:07:17.013Z,176.57
2022-12-11T20:09:20.451Z,169.48
2022-12-11T20:11:23.916Z,169.25
2022-12-11T20:13:27.219Z,169.00
2022-12-11T20:15:31.816Z,170.52
2022-12-11T20:17:36.715Z,174.27
2022-12-11T20:19:40.427Z,164.90
2022-12-11T20:21:44.476Z,170.13
2022-12-11T20:23:49.575Z,170.65
2022-12-11T20:25:58.707Z,173.90
2022-12-11T20:28:02.328Z,173.45
2022-12-11T20:30:07.384Z,169.32
2022-12-11T20:32:12.225Z,139.82
2022-12-11T20:34:15.916Z,145.77
2022-12-11T20:36:21.472Z,164.85
2022-12-11T20:38:26.865Z,152.40
2022-12-11T20:40:34.775Z,169.30
2022-12-11T20:42:38.118Z,183.68
2022-12-11T20:44:47.191Z,175.18
2022-12-11T20:46:52.227Z,172.63
2022-12-11T20:48:58.399Z,179.68
2022-12-11T20:51:02.003Z,149.45
2022-12-11T20:53:05.384Z,150.10
2022-12-11T20:55:10.556Z,170.23
2022-12-11T20:57:16.354Z,175.10
2022-12-11T20:59:19.996Z,170.07
2022-12-11T21:01:25.346Z,164.07
2022-12-11T21:03:29.654Z,175.90
2022-12-11T21:05:33.011Z,162.10
2022-12-11T21:07:36.350Z,168.25
2022-12-11T21:09:41.012Z,169.32
2022-12-11T21:11:44.955Z,163.40
2022-12-11T21:13:49.873Z,160.20
2022-12-11T21:15:56.624Z,174.88
2022-12-11T21:18:00.045Z,183.73
2022-12-11T21:20:03.420Z,164.18
2022-12-11T21:22:06.723Z,167.13
2022-12-11T21:24:16.243Z,177.52
2022-12-11T21:26:20.635Z,167.73
2022-12-11T21:28:23.928Z,171.18
2022-12-11T21:30:28.654Z,165.27
2022-12-11T21:32:32.254Z,161.18
2022-12-11T21:34:35.608Z,158.95
2022-12-11T21:36:39.777Z,169.48
2022-12-11T21:38:45.138Z,160.25
2022-12-11T21:40:48.475Z,164.85
2022-12-11T21:42:51.800Z,165.90
2022-12-11T21:47:21.121Z,164.82
2022-12-11T21:49:24.496Z,156.65
2022-12-11T21:51:35.965Z,159.60
2022-12-11T21:53:41.225Z,163.40
2022-12-11T21:55:44.580Z,158.18
2022-12-11T21:57:47.924Z,159.77
2022-12-11T21:59:51.186Z,128.45
2022-12-11T22:01:54.684Z,158.27
2022-12-11T22:03:59.886Z,171.07
2022-12-11T22:06:03.236Z,173.55
2022-12-11T22:08:07.150Z,169.20
2022-12-11T22:10:11.268Z,165.85
2022-12-11T22:12:22.098Z,127.15
2022-12-11T22:14:25.566Z,129.82
2022-12-11T22:16:29.364Z,130.18
2022-12-11T22:18:32.685Z,158.57
2022-12-11T22:20:37.328Z,154.65
2022-12-11T22:22:40.655Z,162.57
2022-12-11T22:24:43.938Z,148.05
2022-12-11T22:26:47.388Z,153.43
2022-12-11T22:28:51.279Z,145.90
2022-12-11T22:30:54.589Z,151.07
2022-12-11T22:32:58.094Z,158.10
2022-12-11T22:35:01.389Z,151.57
2022-12-11T22:37:06.083Z,146.38
2022-12-11T22:39:09.595Z,164.95
2022-12-11T22:41:17.579Z,131.27
2022-12-11T22:43:25.273Z,145.65
2022-12-11T22:45:28.588Z,160.48
2022-12-11T22:47:32.074Z,151.13
2022-12-11T22:49:36.624Z,143.80
2022-12-11T22:51:39.907Z,133.60
2022-12-11T22:53:44.570Z,133.45
2022-12-11T22:55:47.852Z,156.65
2022-12-11T22:57:51.609Z,165.13
2022-12-11T22:59:56.814Z,165.02
2022-12-11T23:02:00.123Z,165.52
2022-12-11T23:04:03.420Z,158.90
2022-12-11T23:06:08.853Z,165.45
2022-12-11T23:08:12.240Z,158.30
2022-12-11T23:10:17.009Z,157.45
2022-12-11T23:12:20.352Z,160.98
2022-12-11T23:14:23.741Z,152.98
2022-12-11T23:16:27.632Z,156.82
2022-12-11T23:18:31.268Z,161.70
2022-12-11T23:20:34.748Z,161.85
2022-12-11T23:22:38.482Z,153.00
2022-12-11T23:24:41.942Z,159.23
2022-12-11T23:26:48.023Z,158.90
2022-12-11T23:28:51.653Z,162.93
2022-12-11T23:30:55.068Z,162.30
2022-12-11T23:32:58.416Z,151.75
2022-12-11T23:35:01.920Z,157.95
2022-12-11T23:37:05.802Z,170.32
2022-12-11T23:39:09.124Z,155.13
2022-12-11T23:41:14.271Z,146.93
2022-12-11T23:43:18.903Z,159.27
2022-12-11T23:45:22.267Z,159.38
2022-12-11T23:47:25.729Z,163.57
2022-12-11T23:49:29.089Z,159.88
2022-12-11T23:51:33.310Z,154.25
2022-12-11T23:53:36.922Z,163.88
2022-12-11T23:55:41.352Z,138.40
2022-12-11T23:57:44.666Z,132.82
2022-12-11T23:59:49.319Z,155.15
